createdAt,value
2023-05-08T00:01:58.010Z,97211.00
2023-05-08T00:04:24.920Z,97210.00
2023-05-08T00:06:52.976Z,97218.00
2023-05-08T00:09:20.710Z,97217.00
2023-05-08T00:11:47.621Z,97217.00
2023-05-08T00:14:14.580Z,97211.00
2023-05-08T00:16:41.583Z,97214.00
2023-05-08T00:19:08.663Z,97214.00
2023-05-08T00:21:35.477Z,97213.00
2023-05-08T00:24:02.332Z,97217.00
2023-05-08T00:26:29.107Z,97211.00
2023-05-08T00:28:56.080Z,97212.00
2023-05-08T00:31:23.965Z,97213.00
2023-05-08T00:33:50.762Z,97212.00
2023-05-08T00:36:18.057Z,97211.00
2023-05-08T00:38:44.846Z,97219.00
2023-05-08T00:41:11.665Z,97217.00
2023-05-08T00:43:39.954Z,97209.00
2023-05-08T00:46:06.859Z,97213.00
2023-05-08T00:48:35.916Z,97214.00
2023-05-08T00:51:07.483Z,97209.00
2023-05-08T00:53:39.924Z,97210.00
2023-05-08T00:56:13.584Z,97211.00
2023-05-08T00:58:41.330Z,97213.00
2023-05-08T01:01:08.300Z,97217.00
2023-05-08T01:03:36.614Z,97221.00
2023-05-08T01:06:04.486Z,97217.00
2023-05-08T01:08:31.938Z,97219.00
2023-05-08T01:11:18.402Z,97226.00
2023-05-08T01:14:20.260Z,97229.00
2023-05-08T01:17:24.233Z,97224.00
2023-05-08T01:20:09.078Z,97226.00
2023-05-08T01:23:16.454Z,97217.00
2023-05-08T01:26:15.278Z,97226.00
2023-05-08T01:29:25.713Z,97225.00
2023-05-08T01:32:50.903Z,97225.00
2023-05-08T01:36:29.815Z,97225.00
2023-05-08T01:39:10.147Z,97230.00
2023-05-08T01:41:39.089Z,97229.00
2023-05-08T01:44:21.721Z,97229.00
2023-05-08T01:46:51.212Z,97229.00
2023-05-08T01:49:27.543Z,97221.00
2023-05-08T01:52:03.006Z,97223.00
2023-05-08T01:54:42.998Z,97223.00
2023-05-08T01:57:11.391Z,97220.00
2023-05-08T01:59:39.626Z,97220.00
2023-05-08T02:02:09.486Z,97224.00
2023-05-08T02:04:37.178Z,97227.00
2023-05-08T02:07:04.698Z,97228.00
2023-05-08T02:09:32.432Z,97229.00
2023-05-08T02:12:02.923Z,97224.00
2023-05-08T02:14:30.844Z,97218.00
2023-05-08T02:16:59.431Z,97226.00
2023-05-08T02:19:29.156Z,97225.00
2023-05-08T02:21:59.738Z,97227.00
2023-05-08T02:24:27.041Z,97226.00
2023-05-08T02:26:55.980Z,97228.00
2023-05-08T02:29:23.771Z,97223.00
2023-05-08T02:31:52.249Z,97228.00
2023-05-08T02:34:20.412Z,97232.00
2023-05-08T02:36:48.618Z,97233.00
2023-05-08T02:39:15.843Z,97226.00
2023-05-08T02:41:42.714Z,97230.00
2023-05-08T02:44:09.884Z,97223.00
2023-05-08T02:46:47.852Z,97231.00
2023-05-08T02:49:53.179Z,97230.00
2023-05-08T02:52:38.430Z,97235.00
2023-05-08T02:55:30.849Z,97233.00
2023-05-08T02:58:14.844Z,97235.00
2023-05-08T03:00:58.366Z,97231.00
2023-05-08T03:03:44.766Z,97236.00
2023-05-08T03:06:21.674Z,97233.00
2023-05-08T03:08:50.810Z,97229.00
2023-05-08T03:11:28.822Z,97231.00
2023-05-08T03:13:59.023Z,97224.00
2023-05-08T03:16:28.184Z,97221.00
2023-05-08T03:19:02.008Z,97223.00
2023-05-08T03:21:31.824Z,97224.00
2023-05-08T03:24:02.271Z,97216.00
2023-05-08T03:26:29.280Z,97220.00
2023-05-08T03:28:58.003Z,97221.00
2023-05-08T03:31:26.914Z,97216.00
2023-05-08T03:33:55.487Z,97218.00
2023-05-08T03:36:24.913Z,97223.00
2023-05-08T03:38:51.795Z,97225.00
2023-05-08T03:41:18.768Z,97216.00
2023-05-08T03:43:46.781Z,97221.00
2023-05-08T03:46:14.330Z,97217.00
2023-05-08T03:48:42.159Z,97218.00
2023-05-08T03:51:09.668Z,97221.00
2023-05-08T03:53:36.520Z,97230.00
2023-05-08T03:56:03.569Z,97231.00
2023-05-08T03:58:45.391Z,97233.00
2023-05-08T04:01:41.602Z,97225.00
2023-05-08T04:04:24.319Z,97236.00
2023-05-08T04:07:11.081Z,97225.00
2023-05-08T04:09:49.680Z,97235.00
2023-05-08T04:12:23.927Z,97232.00
2023-05-08T04:15:17.754Z,97235.00
2023-05-08T04:17:56.111Z,97236.00
2023-05-08T04:20:27.316Z,97241.00
2023-05-08T04:22:54.876Z,97238.00
2023-05-08T04:25:22.127Z,97242.00
2023-05-08T04:27:51.189Z,97238.00
2023-05-08T04:30:18.624Z,97240.00
2023-05-08T04:32:46.949Z,97236.00
2023-05-08T04:35:14.663Z,97237.00
2023-05-08T04:37:45.236Z,97242.00
2023-05-08T04:40:12.506Z,97241.00
2023-05-08T04:42:42.793Z,97243.00
2023-05-08T04:45:11.329Z,97240.00
2023-05-08T04:47:38.330Z,97246.00
2023-05-08T04:50:05.902Z,97253.00
2023-05-08T04:52:32.721Z,97257.00
2023-05-08T04:54:59.542Z,97259.00
2023-05-08T04:57:26.330Z,97258.00
2023-05-08T04:59:53.112Z,97255.00
2023-05-08T05:02:20.020Z,97265.00
2023-05-08T05:04:46.884Z,97262.00
2023-05-08T05:07:13.659Z,97256.00
2023-05-08T05:09:40.603Z,97259.00
2023-05-08T05:12:07.592Z,97264.00
2023-05-08T05:14:34.404Z,97263.00
2023-05-08T05:17:01.254Z,97261.00
2023-05-08T05:19:28.075Z,97259.00
2023-05-08T05:21:54.881Z,97262.00
2023-05-08T05:24:21.648Z,97271.00
2023-05-08T05:26:48.428Z,97270.00
2023-05-08T05:29:15.193Z,97263.00
2023-05-08T05:31:42.475Z,97279.00
2023-05-08T05:34:09.375Z,97272.00
2023-05-08T05:36:36.435Z,97276.00
2023-05-08T05:39:03.511Z,97280.00
2023-05-08T05:41:30.373Z,97280.00
2023-05-08T05:43:57.179Z,97282.00
2023-05-08T05:46:31.140Z,97286.00
2023-05-08T05:48:58.880Z,97288.00
2023-05-08T05:51:25.850Z,97286.00
2023-05-08T05:53:52.643Z,97286.00
2023-05-08T05:56:19.455Z,97283.00
2023-05-08T05:58:46.229Z,97291.00
2023-05-08T06:01:12.989Z,97288.00
2023-05-08T06:03:39.882Z,97284.00
2023-05-08T06:06:07.154Z,97295.00
2023-05-08T06:08:34.011Z,97283.00
2023-05-08T06:11:00.834Z,97294.00
2023-05-08T06:13:27.688Z,97289.00
2023-05-08T06:15:58.772Z,97293.00
2023-05-08T06:18:26.028Z,97282.00
2023-05-08T06:20:58.128Z,97294.00
2023-05-08T06:23:26.160Z,97296.00
2023-05-08T06:25:53.849Z,97299.00
2023-05-08T06:28:22.441Z,97302.00
2023-05-08T06:30:49.300Z,97301.00
2023-05-08T06:33:16.129Z,97297.00
2023-05-08T06:35:47.619Z,97302.00
2023-05-08T06:38:14.956Z,97305.00
2023-05-08T06:40:43.997Z,97297.00
2023-05-08T06:43:11.587Z,97294.00
2023-05-08T06:45:39.063Z,97295.00
2023-05-08T06:48:06.726Z,97296.00
2023-05-08T06:50:33.602Z,97296.00
2023-05-08T06:53:00.371Z,97294.00
2023-05-08T06:55:27.142Z,97299.00
2023-05-08T06:57:53.911Z,97295.00
2023-05-08T07:00:20.828Z,97297.00
2023-05-08T07:02:47.752Z,97298.00
2023-05-08T07:05:15.017Z,97303.00
2023-05-08T07:07:42.703Z,97305.00
2023-05-08T07:10:10.361Z,97302.00
2023-05-08T07:12:37.303Z,97302.00
2023-05-08T07:15:14.160Z,97303.00
2023-05-08T07:17:51.258Z,97305.00
2023-05-08T07:20:18.217Z,97307.00
2023-05-08T07:22:45.022Z,97311.00
2023-05-08T07:25:12.772Z,97307.00
2023-05-08T07:27:39.702Z,97309.00
2023-05-08T07:30:07.702Z,97310.00
2023-05-08T07:32:34.582Z,97309.00
2023-05-08T07:35:03.732Z,97306.00
2023-05-08T07:37:30.612Z,97313.00
2023-05-08T07:39:57.708Z,97315.00
2023-05-08T07:42:24.591Z,97312.00
2023-05-08T07:44:54.900Z,97310.00
2023-05-08T07:47:22.458Z,97310.00
2023-05-08T07:49:49.442Z,97313.00
2023-05-08T07:52:16.608Z,97314.00
2023-05-08T07:54:43.753Z,97307.00
2023-05-08T07:57:11.088Z,97304.00
2023-05-08T07:59:37.830Z,97308.00
2023-05-08T08:02:04.616Z,97312.00
2023-05-08T08:04:31.577Z,97314.00
2023-05-08T08:06:58.549Z,97306.00
2023-05-08T08:09:25.739Z,97307.00
2023-05-08T08:11:52.538Z,97315.00
2023-05-08T08:14:19.340Z,97310.00
2023-05-08T08:16:46.144Z,97301.00
2023-05-08T08:19:12.969Z,97316.00
2023-05-08T08:21:43.932Z,97309.00
2023-05-08T08:24:11.058Z,97314.00
2023-05-08T08:26:38.011Z,97318.00
2023-05-08T08:29:04.793Z,97318.00
2023-05-08T08:31:37.077Z,97314.00
2023-05-08T08:34:04.925Z,97316.00
2023-05-08T08:36:43.674Z,97315.00
2023-05-08T08:39:13.426Z,97314.00
2023-05-08T08:41:59.599Z,97310.00
2023-05-08T08:44:51.662Z,97310.00
2023-05-08T08:48:01.519Z,97311.00
2023-05-08T08:50:46.534Z,97305.00
2023-05-08T08:53:44.331Z,97316.00
2023-05-08T08:56:12.385Z,97305.00
2023-05-08T08:58:49.772Z,97313.00
2023-05-08T09:01:18.537Z,97319.00
2023-05-08T09:03:47.701Z,97319.00
2023-05-08T09:06:17.193Z,97330.00
2023-05-08T09:08:44.513Z,97327.00
2023-05-08T09:11:11.288Z,97327.00
2023-05-08T09:13:38.180Z,97335.00
2023-05-08T09:16:05.518Z,97330.00
2023-05-08T09:18:32.383Z,97335.00
2023-05-08T09:21:01.350Z,97333.00
2023-05-08T09:23:28.317Z,97336.00
2023-05-08T09:25:55.107Z,97331.00
2023-05-08T09:28:25.035Z,97338.00
2023-05-08T09:31:01.617Z,97327.00
2023-05-08T09:33:29.918Z,97335.00
2023-05-08T09:35:57.391Z,97329.00
2023-05-08T09:38:38.393Z,97335.00
2023-05-08T09:41:16.595Z,97336.00
2023-05-08T09:43:44.883Z,97336.00
2023-05-08T09:46:25.547Z,97336.00
2023-05-08T09:48:59.803Z,97339.00
2023-05-08T09:51:31.805Z,97339.00
2023-05-08T09:54:00.280Z,97330.00
2023-05-08T09:56:35.010Z,97332.00
2023-05-08T09:59:22.521Z,97334.00
2023-05-08T10:01:49.344Z,97336.00
2023-05-08T10:04:16.190Z,97337.00
2023-05-08T10:06:43.259Z,97330.00
2023-05-08T10:09:16.113Z,97339.00
2023-05-08T10:11:52.246Z,97348.00
2023-05-08T10:14:20.163Z,97345.00
2023-05-08T10:16:49.255Z,97349.00
2023-05-08T10:19:18.937Z,97344.00
2023-05-08T10:21:52.001Z,97346.00
2023-05-08T10:24:33.508Z,97344.00
2023-05-08T10:27:16.366Z,97343.00
2023-05-08T10:30:04.310Z,97338.00
2023-05-08T10:32:44.303Z,97339.00
2023-05-08T10:35:12.729Z,97336.00
2023-05-08T10:37:42.165Z,97331.00
2023-05-08T10:40:11.176Z,97334.00
2023-05-08T10:42:38.906Z,97330.00
2023-05-08T10:45:06.783Z,97319.00
2023-05-08T10:48:05.352Z,97326.00
2023-05-08T10:51:05.421Z,97319.00
2023-05-08T10:53:39.462Z,97313.00
2023-05-08T10:56:06.745Z,97317.00
2023-05-08T10:58:37.186Z,97313.00
2023-05-08T11:01:10.434Z,97311.00
2023-05-08T11:03:46.263Z,97304.00
2023-05-08T11:06:14.078Z,97311.00
2023-05-08T11:08:53.813Z,97309.00
2023-05-08T11:11:35.569Z,97304.00
2023-05-08T11:14:08.304Z,97310.00
2023-05-08T11:16:53.548Z,97303.00
2023-05-08T11:19:25.136Z,97304.00
2023-05-08T11:22:10.699Z,97292.00
2023-05-08T11:24:39.441Z,97301.00
2023-05-08T11:27:06.328Z,97302.00
2023-05-08T11:29:33.296Z,97300.00
2023-05-08T11:32:00.328Z,97296.00
2023-05-08T11:34:42.849Z,97287.00
2023-05-08T11:37:17.634Z,97283.00
2023-05-08T11:39:44.499Z,97278.00
2023-05-08T11:42:29.215Z,97277.00
2023-05-08T11:45:09.919Z,97281.00
2023-05-08T11:47:45.031Z,97277.00
2023-05-08T11:50:14.016Z,97286.00
2023-05-08T11:52:42.987Z,97284.00
2023-05-08T11:55:11.864Z,97277.00
2023-05-08T11:57:38.904Z,97272.00
2023-05-08T12:00:07.968Z,97271.00
2023-05-08T12:02:40.111Z,97270.00
2023-05-08T12:05:08.508Z,97272.00
2023-05-08T12:07:48.019Z,97276.00
2023-05-08T12:10:16.815Z,97271.00
2023-05-08T12:12:45.194Z,97273.00
2023-05-08T12:15:14.625Z,97275.00
2023-05-08T12:17:42.567Z,97272.00
2023-05-08T12:20:18.560Z,97289.00
2023-05-08T12:22:53.106Z,97273.00
2023-05-08T12:25:20.248Z,97275.00
2023-05-08T12:27:47.359Z,97267.00
2023-05-08T12:30:15.171Z,97272.00
2023-05-08T12:32:43.636Z,97263.00
2023-05-08T12:35:12.754Z,97263.00
2023-05-08T12:37:40.524Z,97269.00
2023-05-08T12:40:08.788Z,97268.00
2023-05-08T12:42:49.398Z,97266.00
2023-05-08T12:45:33.133Z,97272.00
2023-05-08T12:48:06.413Z,97277.00
2023-05-08T12:50:42.500Z,97268.00
2023-05-08T12:53:20.306Z,97277.00
2023-05-08T12:55:52.822Z,97281.00
2023-05-08T12:58:24.651Z,97281.00
2023-05-08T13:00:53.829Z,97277.00
2023-05-08T13:03:29.858Z,97276.00
2023-05-08T13:05:58.375Z,97272.00
2023-05-08T13:08:37.392Z,97271.00
2023-05-08T13:11:06.600Z,97273.00
2023-05-08T13:13:36.573Z,97273.00
2023-05-08T13:16:07.919Z,97272.00
2023-05-08T13:18:37.444Z,97269.00
2023-05-08T13:21:04.499Z,97279.00
2023-05-08T13:23:31.270Z,97273.00
2023-05-08T13:25:58.101Z,97274.00
2023-05-08T13:28:24.910Z,97271.00
2023-05-08T13:30:51.744Z,97284.00
2023-05-08T13:33:18.577Z,97270.00
2023-05-08T13:35:45.740Z,97275.00
2023-05-08T13:38:12.539Z,97270.00
2023-05-08T13:40:41.374Z,97268.00
2023-05-08T13:43:08.196Z,97262.00
2023-05-08T13:45:35.002Z,97258.00
2023-05-08T13:48:01.897Z,97257.00
2023-05-08T13:50:28.826Z,97252.00
2023-05-08T13:52:55.598Z,97244.00
2023-05-08T13:55:23.129Z,97246.00
2023-05-08T13:57:50.523Z,97249.00
2023-05-08T14:00:18.114Z,97242.00
2023-05-08T14:02:45.217Z,97245.00
2023-05-08T14:05:12.398Z,97252.00
2023-05-08T14:07:39.492Z,97241.00
2023-05-08T14:10:06.745Z,97246.00
2023-05-08T14:12:36.159Z,97240.00
2023-05-08T14:15:05.245Z,97246.00
2023-05-08T14:17:32.489Z,97241.00
2023-05-08T14:19:59.618Z,97249.00
2023-05-08T14:22:26.432Z,97243.00
2023-05-08T14:24:53.236Z,97247.00
2023-05-08T14:27:20.268Z,97247.00
2023-05-08T14:29:47.369Z,97243.00
2023-05-08T14:32:14.125Z,97237.00
2023-05-08T14:34:40.930Z,97231.00
2023-05-08T14:37:07.754Z,97235.00
2023-05-08T14:39:35.109Z,97241.00
2023-05-08T14:42:21.235Z,97239.00
2023-05-08T14:44:48.860Z,97238.00
2023-05-08T14:47:15.696Z,97237.00
2023-05-08T14:49:42.525Z,97233.00
2023-05-08T14:52:09.390Z,97236.00
2023-05-08T14:54:36.275Z,97232.00
2023-05-08T14:57:03.221Z,97240.00
2023-05-08T14:59:30.046Z,97249.00
2023-05-08T15:01:56.898Z,97239.00
2023-05-08T15:04:23.881Z,97247.00
2023-05-08T15:06:50.690Z,97241.00
2023-05-08T15:09:17.605Z,97239.00
2023-05-08T15:11:44.746Z,97245.00
2023-05-08T15:14:11.606Z,97245.00
2023-05-08T15:16:38.619Z,97245.00
2023-05-08T15:19:05.595Z,97254.00
2023-05-08T15:21:32.373Z,97256.00
2023-05-08T15:23:59.219Z,97260.00
2023-05-08T15:26:26.009Z,97257.00
2023-05-08T15:28:52.857Z,97254.00
2023-05-08T15:31:19.716Z,97257.00
2023-05-08T15:33:47.743Z,97257.00
2023-05-08T15:36:14.801Z,97249.00
2023-05-08T15:38:41.956Z,97247.00
2023-05-08T15:41:14.809Z,97258.00
2023-05-08T15:43:45.019Z,97262.00
2023-05-08T15:46:11.813Z,97263.00
2023-05-08T15:48:38.686Z,97261.00
2023-05-08T15:51:05.732Z,97262.00
2023-05-08T15:53:33.967Z,97260.00
2023-05-08T15:56:00.788Z,97256.00
2023-05-08T15:58:27.666Z,97247.00
2023-05-08T16:00:54.623Z,97259.00
2023-05-08T16:03:21.526Z,97264.00
2023-05-08T16:05:48.455Z,97268.00
2023-05-08T16:08:15.216Z,97267.00
2023-05-08T16:10:42.447Z,97273.00
2023-05-08T16:13:09.467Z,97266.00
2023-05-08T16:15:36.389Z,97266.00
2023-05-08T16:18:03.400Z,97278.00
2023-05-08T16:20:30.553Z,97268.00
2023-05-08T16:22:59.063Z,97270.00
2023-05-08T16:25:26.309Z,97268.00
2023-05-08T16:27:53.132Z,97280.00
2023-05-08T16:30:20.125Z,97282.00
2023-05-08T16:32:47.149Z,97278.00
2023-05-08T16:35:14.508Z,97278.00
2023-05-08T16:37:41.620Z,97276.00
2023-05-08T16:40:09.508Z,97280.00
2023-05-08T16:42:36.934Z,97276.00
2023-05-08T16:45:05.152Z,97283.00
2023-05-08T16:47:32.670Z,97278.00
2023-05-08T16:50:00.085Z,97279.00
2023-05-08T16:52:27.008Z,97278.00
2023-05-08T16:54:53.892Z,97280.00
2023-05-08T16:57:20.740Z,97279.00
2023-05-08T16:59:47.553Z,97273.00
2023-05-08T17:02:18.712Z,97272.00
2023-05-08T17:04:49.416Z,97276.00
2023-05-08T17:07:17.242Z,97270.00
2023-05-08T17:09:44.758Z,97278.00
2023-05-08T17:12:11.709Z,97281.00
2023-05-08T17:14:40.273Z,97286.00
2023-05-08T17:17:07.669Z,97290.00
2023-05-08T17:19:35.090Z,97297.00
2023-05-08T17:22:02.457Z,97302.00
2023-05-08T17:24:32.830Z,97301.00
2023-05-08T17:26:59.705Z,97302.00
2023-05-08T17:29:26.645Z,97302.00
2023-05-08T17:31:53.567Z,97302.00
2023-05-08T17:34:20.893Z,97293.00
2023-05-08T17:36:47.779Z,97288.00
2023-05-08T17:39:14.998Z,97291.00
2023-05-08T17:41:41.796Z,97283.00
2023-05-08T17:44:08.558Z,97287.00
2023-05-08T17:46:35.365Z,97282.00
2023-05-08T17:49:02.280Z,97290.00
2023-05-08T17:51:29.098Z,97295.00
2023-05-08T17:53:58.511Z,97286.00
2023-05-08T17:56:25.704Z,97287.00
2023-05-08T17:58:53.045Z,97298.00
2023-05-08T18:01:20.394Z,97296.00
2023-05-08T18:03:50.549Z,97300.00
2023-05-08T18:06:18.917Z,97309.00
2023-05-08T18:08:46.784Z,97307.00
2023-05-08T18:11:17.626Z,97314.00
2023-05-08T18:13:44.489Z,97318.00
2023-05-08T18:16:13.425Z,97311.00
2023-05-08T18:18:40.548Z,97317.00
2023-05-08T18:21:07.475Z,97306.00
2023-05-08T18:23:34.452Z,97310.00
2023-05-08T18:26:01.452Z,97301.00
2023-05-08T18:28:28.521Z,97307.00
2023-05-08T18:30:55.474Z,97316.00
2023-05-08T18:33:22.356Z,97307.00
2023-05-08T18:35:49.234Z,97313.00
2023-05-08T18:38:17.527Z,97318.00
2023-05-08T18:40:45.550Z,97314.00
2023-05-08T18:43:12.335Z,97310.00
2023-05-08T18:45:40.274Z,97311.00
2023-05-08T18:48:08.938Z,97306.00
2023-05-08T18:50:35.914Z,97304.00
2023-05-08T18:53:02.718Z,97305.00
2023-05-08T18:55:29.496Z,97309.00
2023-05-08T18:57:56.794Z,97309.00
2023-05-08T19:00:23.748Z,97311.00
2023-05-08T19:02:50.604Z,97304.00
2023-05-08T19:05:17.861Z,97301.00
2023-05-08T19:07:45.400Z,97314.00
2023-05-08T19:10:12.647Z,97307.00
2023-05-08T19:12:39.782Z,97309.00
2023-05-08T19:15:09.255Z,97314.00
2023-05-08T19:17:36.851Z,97303.00
2023-05-08T19:20:04.506Z,97309.00
2023-05-08T19:22:33.294Z,97306.00
2023-05-08T19:25:01.315Z,97306.00
2023-05-08T19:27:29.086Z,97309.00
2023-05-08T19:29:56.061Z,97309.00
2023-05-08T19:32:23.106Z,97317.00
2023-05-08T19:34:49.924Z,97308.00
2023-05-08T19:37:16.706Z,97316.00
2023-05-08T19:39:43.676Z,97315.00
2023-05-08T19:42:13.605Z,97314.00
2023-05-08T19:44:40.461Z,97314.00
2023-05-08T19:47:07.433Z,97311.00
2023-05-08T19:49:34.216Z,97314.00
2023-05-08T19:52:01.043Z,97320.00
2023-05-08T19:54:29.837Z,97323.00
2023-05-08T19:56:57.124Z,97323.00
2023-05-08T19:59:24.020Z,97328.00
2023-05-08T20:01:51.089Z,97330.00
2023-05-08T20:04:17.972Z,97330.00
2023-05-08T20:06:44.802Z,97332.00
2023-05-08T20:09:11.673Z,97332.00
2023-05-08T20:11:38.438Z,97336.00
2023-05-08T20:14:05.216Z,97333.00
2023-05-08T20:16:32.153Z,97337.00
2023-05-08T20:18:59.363Z,97338.00
2023-05-08T20:21:26.588Z,97338.00
2023-05-08T20:23:53.360Z,97336.00
2023-05-08T20:26:20.157Z,97340.00
2023-05-08T20:28:46.924Z,97336.00
2023-05-08T20:31:13.684Z,97337.00
2023-05-08T20:33:40.528Z,97339.00
2023-05-08T20:36:07.340Z,97338.00
2023-05-08T20:38:34.285Z,97333.00
2023-05-08T20:41:01.444Z,97329.00
2023-05-08T20:43:28.383Z,97331.00
2023-05-08T20:45:55.222Z,97320.00
2023-05-08T20:48:22.916Z,97328.00
2023-05-08T20:50:49.750Z,97326.00
2023-05-08T20:53:16.558Z,97326.00
2023-05-08T20:55:43.365Z,97332.00
2023-05-08T20:58:10.299Z,97326.00
2023-05-08T21:00:37.190Z,97328.00
2023-05-08T21:03:04.088Z,97336.00
2023-05-08T21:05:31.075Z,97335.00
2023-05-08T21:08:02.361Z,97325.00
2023-05-08T21:10:31.283Z,97334.00
2023-05-08T21:12:58.151Z,97325.00
2023-05-08T21:15:25.021Z,97324.00
2023-05-08T21:17:51.919Z,97317.00
2023-05-08T21:20:19.818Z,97310.00
2023-05-08T21:22:46.622Z,97314.00
2023-05-08T21:25:14.882Z,97308.00
2023-05-08T21:27:44.964Z,97308.00
2023-05-08T21:30:15.389Z,97312.00
2023-05-08T21:32:44.163Z,97309.00
2023-05-08T21:35:12.414Z,97305.00
2023-05-08T21:37:39.746Z,97304.00
2023-05-08T21:40:07.730Z,97290.00
2023-05-08T21:42:34.506Z,97296.00
2023-05-08T21:45:01.411Z,97294.00
2023-05-08T21:47:28.530Z,97292.00
2023-05-08T21:49:55.560Z,97288.00
2023-05-08T21:52:23.074Z,97290.00
2023-05-08T21:54:50.477Z,97283.00
2023-05-08T21:57:17.358Z,97282.00
2023-05-08T21:59:44.081Z,97287.00
2023-05-08T22:02:11.333Z,97287.00
2023-05-08T22:04:38.450Z,97279.00
2023-05-08T22:07:05.344Z,97273.00
2023-05-08T22:09:32.142Z,97269.00
2023-05-08T22:11:58.938Z,97265.00
2023-05-08T22:14:25.730Z,97264.00
2023-05-08T22:16:53.086Z,97254.00
2023-05-08T22:19:19.910Z,97252.00
2023-05-08T22:21:46.753Z,97237.00
2023-05-08T22:24:15.047Z,97242.00
2023-05-08T22:26:41.862Z,97247.00
2023-05-08T22:29:08.681Z,97243.00
2023-05-08T22:31:35.556Z,97252.00
2023-05-08T22:34:02.342Z,97242.00
2023-05-08T22:36:29.220Z,97242.00
2023-05-08T22:38:56.244Z,97248.00
2023-05-08T22:41:23.636Z,97247.00
2023-05-08T22:43:50.541Z,97246.00
2023-05-08T22:46:17.664Z,97243.00
2023-05-08T22:48:44.885Z,97241.00
2023-05-08T22:51:11.774Z,97247.00
2023-05-08T22:53:38.552Z,97234.00
2023-05-08T22:56:05.585Z,97239.00
2023-05-08T22:58:32.330Z,97240.00
2023-05-08T23:00:59.687Z,97238.00
2023-05-08T23:03:26.590Z,97235.00
2023-05-08T23:05:53.398Z,97227.00
2023-05-08T23:08:21.949Z,97230.00
2023-05-08T23:10:49.274Z,97228.00
2023-05-08T23:13:16.061Z,97225.00
2023-05-08T23:15:43.085Z,97229.00
2023-05-08T23:18:10.081Z,97229.00
2023-05-08T23:20:37.053Z,97227.00
2023-05-08T23:23:03.842Z,97227.00
2023-05-08T23:25:30.649Z,97222.00
2023-05-08T23:27:57.424Z,97221.00
2023-05-08T23:30:24.229Z,97222.00
2023-05-08T23:32:51.141Z,97220.00
2023-05-08T23:35:18.039Z,97213.00
2023-05-08T23:37:44.916Z,97208.00
2023-05-08T23:40:12.172Z,97207.00
2023-05-08T23:42:39.731Z,97213.00
2023-05-08T23:45:07.774Z,97206.00
2023-05-08T23:47:34.633Z,97209.00
2023-05-08T23:50:01.490Z,97209.00
2023-05-08T23:52:28.683Z,97204.00
2023-05-08T23:54:55.475Z,97201.00
2023-05-08T23:57:23.422Z,97205.00
2023-05-08T23:59:50.242Z,97210.00
